Time;durP1;ratioP1;P1;durP2;ratioP2;P2;SDS_P1;SDS_P2;PMS_P1;PMS_P2;Temp;Humidity;BMP_temperature;BMP_pressure;BME280_temperature;BME280_humidity;BME280_pressure;Samples;Min_cycle;Max_cycle;Signal;HPM_P1;HPM_P2
2021/01/07 00:02:06;;;;;;;8.83;4.80;;;;;;;2.22;84.03;99722.96;1704977;81;21301;-61
2021/01/07 00:04:33;;;;;;;12.23;4.87;;;;;;;2.22;84.12;99711.02;1706059;82;21218;-62
2021/01/07 00:07:01;;;;;;;10.43;5.33;;;;;;;2.23;84.18;99694.63;1705323;81;21230;-61
2021/01/07 00:09:28;;;;;;;11.50;6.20;;;;;;;2.24;84.18;99704.35;1712927;81;22022;-60
2021/01/07 00:11:56;;;;;;;9.87;6.77;;;;;;;2.23;84.21;99699.49;1708934;80;21248;-60
2021/01/07 00:14:23;;;;;;;8.27;5.67;;;;;;;2.22;84.20;99698.18;1739467;80;21199;-61
2021/01/07 00:16:50;;;;;;;11.37;5.93;;;;;;;2.23;84.26;99699.49;1734098;80;21176;-61
2021/01/07 00:19:17;;;;;;;11.80;6.93;;;;;;;2.23;84.26;99692.85;1732982;80;21650;-61
2021/01/07 00:21:45;;;;;;;11.03;6.87;;;;;;;2.24;84.35;99697.72;1736545;80;22898;-60
2021/01/07 00:24:12;;;;;;;13.60;7.30;;;;;;;2.24;84.39;99687.97;1734549;80;21234;-60
2021/01/07 00:26:39;;;;;;;11.57;7.07;;;;;;;2.27;84.41;99676.43;1737890;80;21202;-60
2021/01/07 00:29:07;;;;;;;15.30;9.27;;;;;;;2.31;84.45;99675.91;1734699;80;21234;-59
2021/01/07 00:31:34;;;;;;;14.93;8.60;;;;;;;2.33;84.47;99673.67;1730697;80;21531;-62
2021/01/07 00:34:01;;;;;;;15.47;9.63;;;;;;;2.33;84.48;99676.77;1737228;80;21384;-60
2021/01/07 00:36:28;;;;;;;17.13;10.53;;;;;;;2.34;84.49;99682.06;1731872;80;21807;-61
2021/01/07 00:38:55;;;;;;;18.87;10.80;;;;;;;2.33;84.50;99683.41;1736226;80;21521;-62
2021/01/07 00:41:23;;;;;;;18.10;10.23;;;;;;;2.32;84.55;99690.50;1695328;82;21230;-60
2021/01/07 00:43:50;;;;;;;18.00;10.57;;;;;;;2.33;84.52;99679.43;1732579;80;21163;-59
2021/01/07 00:46:17;;;;;;;17.07;10.03;;;;;;;2.34;84.52;99675.88;1734650;80;21265;-62
2021/01/07 00:48:47;;;;;;;19.10;11.00;;;;;;;2.37;84.57;99681.15;1709134;80;21220;-60
2021/01/07 00:51:16;;;;;;;17.63;10.80;;;;;;;2.37;84.59;99674.06;1705264;80;21654;-60
2021/01/07 00:53:45;;;;;;;16.43;10.03;;;;;;;2.40;84.63;99674.44;1739239;80;21900;-62
2021/01/07 00:56:14;;;;;;;19.57;11.47;;;;;;;2.43;84.67;99681.04;1699275;82;21732;-61
2021/01/07 00:58:42;;;;;;;22.17;12.60;;;;;;;2.42;84.67;99672.19;1708531;80;21348;-62
2021/01/07 01:01:09;;;;;;;21.80;11.70;;;;;;;2.44;84.68;99669.52;1734753;80;21219;-61
2021/01/07 01:03:37;;;;;;;19.43;11.23;;;;;;;2.44;84.66;99675.70;1699769;82;21160;-61
2021/01/07 01:06:05;;;;;;;20.23;11.90;;;;;;;2.44;84.64;99681.47;1732349;80;21210;-60
2021/01/07 01:08:32;;;;;;;18.37;8.40;;;;;;;2.44;84.58;99674.38;1735545;80;22302;-60
2021/01/07 01:10:59;;;;;;;17.63;10.03;;;;;;;2.45;84.55;99668.61;1732559;80;21518;-61
2021/01/07 01:13:26;;;;;;;20.07;10.90;;;;;;;2.44;84.58;99660.22;1732450;80;21202;-62
2021/01/07 01:15:54;;;;;;;17.77;10.00;;;;;;;2.44;84.61;99661.09;1736107;80;21468;-62
2021/01/07 01:18:21;;;;;;;17.90;9.27;;;;;;;2.46;84.60;99653.98;1734630;80;21124;-61
2021/01/07 01:20:49;;;;;;;17.80;9.70;;;;;;;2.48;84.56;99653.93;1733614;80;21183;-60
2021/01/07 01:23:16;;;;;;;12.67;8.30;;;;;;;2.44;84.55;99641.17;1735283;80;21635;-60
2021/01/07 01:25:43;;;;;;;15.60;8.77;;;;;;;2.43;84.56;99642.07;1731325;80;21642;-60
2021/01/07 01:28:11;;;;;;;13.67;8.13;;;;;;;2.42;84.49;99639.44;1734418;80;21195;-61
2021/01/07 01:30:38;;;;;;;12.47;5.77;;;;;;;2.41;84.52;99640.33;1731356;80;21196;-62
2021/01/07 01:33:05;;;;;;;15.33;8.23;;;;;;;2.40;84.56;99631.48;1737431;80;21641;-61
2021/01/07 01:35:33;;;;;;;12.10;7.77;;;;;;;2.41;84.52;99627.05;1733815;80;21388;-60
2021/01/07 01:38:00;;;;;;;13.77;8.83;;;;;;;2.40;84.53;99625.29;1733840;80;21239;-62
2021/01/07 01:40:28;;;;;;;13.70;8.20;;;;;;;2.39;84.54;99627.06;1735464;80;21439;-59
2021/01/07 01:42:55;;;;;;;16.63;8.50;;;;;;;2.38;84.55;99621.81;1735002;80;21262;-60
2021/01/07 01:45:22;;;;;;;16.50;8.73;;;;;;;2.35;84.55;99620.52;1734913;80;21227;-61
2021/01/07 01:47:50;;;;;;;15.43;7.20;;;;;;;2.34;84.58;99606.36;1731328;80;21254;-61
2021/01/07 01:50:18;;;;;;;18.90;9.70;;;;;;;2.37;84.58;99606.77;1736887;80;21147;-60
2021/01/07 01:52:45;;;;;;;14.67;8.40;;;;;;;2.38;84.65;99596.58;1732024;80;21139;-61
2021/01/07 01:55:13;;;;;;;11.87;7.10;;;;;;;2.39;84.72;99591.20;1737999;80;21009;-60
2021/01/07 01:57:40;;;;;;;13.80;8.00;;;;;;;2.42;84.72;99577.88;1737561;80;21111;-62
2021/01/07 02:00:09;;;;;;;15.57;8.67;;;;;;;2.46;84.72;99579.59;1739681;80;21391;-60
2021/01/07 02:02:37;;;;;;;15.73;9.77;;;;;;;2.47;84.68;99574.67;1731495;80;21242;-61
2021/01/07 02:05:06;;;;;;;16.40;10.13;;;;;;;2.48;84.64;99563.59;1736859;80;21461;-61
2021/01/07 02:07:33;;;;;;;16.40;9.13;;;;;;;2.47;84.65;99567.16;1736053;80;21112;-61
2021/01/07 02:10:01;;;;;;;15.43;8.57;;;;;;;2.47;84.63;99564.05;1735203;80;21128;-61
2021/01/07 02:12:29;;;;;;;14.13;8.47;;;;;;;2.48;84.59;99560.49;1740039;80;21375;-61
2021/01/07 02:14:56;;;;;;;14.40;8.87;;;;;;;2.49;84.63;99559.59;1736937;80;21154;-62
2021/01/07 02:17:23;;;;;;;13.73;9.13;;;;;;;2.49;84.64;99548.09;1734813;80;22200;-61
2021/01/07 02:19:50;;;;;;;16.97;9.93;;;;;;;2.50;84.66;99549.39;1739903;80;21119;-62
2021/01/07 02:22:18;;;;;;;13.20;9.00;;;;;;;2.52;84.63;99550.25;1736525;80;21129;-61
2021/01/07 02:24:45;;;;;;;18.47;10.10;;;;;;;2.51;84.60;99541.84;1736404;80;21396;-61
2021/01/07 02:27:13;;;;;;;17.73;9.60;;;;;;;2.51;84.55;99542.30;1736847;80;21206;-61
2021/01/07 02:29:43;;;;;;;18.73;11.07;;;;;;;2.48;84.55;99540.56;1733588;80;21187;-61
2021/01/07 02:32:10;;;;;;;17.77;9.90;;;;;;;2.45;84.55;99531.34;1729380;80;21187;-61
2021/01/07 02:34:37;;;;;;;16.00;8.83;;;;;;;2.44;84.57;99529.59;1734322;80;21550;-61
2021/01/07 02:37:05;;;;;;;14.63;9.10;;;;;;;2.43;84.63;99522.52;1734619;80;21221;-61
2021/01/07 02:39:32;;;;;;;16.40;8.93;;;;;;;2.44;84.65;99518.09;1733889;80;22608;-62
2021/01/07 02:41:59;;;;;;;15.17;9.23;;;;;;;2.44;84.68;99518.09;1730800;80;22452;-61
2021/01/07 02:44:26;;;;;;;19.13;10.90;;;;;;;2.45;84.71;99515.86;1737431;80;21242;-61
2021/01/07 02:46:54;;;;;;;19.70;11.40;;;;;;;2.46;84.69;99513.17;1732970;80;22565;-62
2021/01/07 02:49:21;;;;;;;19.97;10.77;;;;;;;2.46;84.68;99501.67;1736157;80;23454;-63
2021/01/07 02:51:48;;;;;;;20.27;11.07;;;;;;;2.46;84.67;99501.67;1736630;80;21210;-60
2021/01/07 02:54:16;;;;;;;18.43;10.27;;;;;;;2.43;84.64;99502.59;1696831;82;21191;-58
2021/01/07 02:56:43;;;;;;;15.23;9.27;;;;;;;2.41;84.66;99503.08;1736675;80;21199;-63
2021/01/07 02:59:12;;;;;;;17.33;9.43;;;;;;;2.42;84.70;99499.97;1733789;80;21195;-62
2021/01/07 03:01:39;;;;;;;18.03;10.03;;;;;;;2.41;84.71;99500.42;1737182;80;21396;-60
2021/01/07 03:04:06;;;;;;;15.57;9.93;;;;;;;2.42;84.77;99503.50;1736889;80;21576;-58
2021/01/07 03:06:33;;;;;;;14.67;8.90;;;;;;;2.44;84.78;99489.75;1732599;80;21183;-62
2021/01/07 03:09:00;;;;;;;13.23;8.63;;;;;;;2.45;84.77;99485.31;1735780;80;21591;-60
2021/01/07 03:11:28;;;;;;;10.20;8.20;;;;;;;2.45;84.81;99479.55;1730775;80;21180;-59
2021/01/07 03:13:55;;;;;;;15.30;9.03;;;;;;;2.46;84.80;99479.97;1724295;80;21588;-60
2021/01/07 03:16:22;;;;;;;13.90;10.13;;;;;;;2.47;84.80;99477.70;1714132;80;21211;-60
2021/01/07 03:18:49;;;;;;;15.33;8.80;;;;;;;2.45;84.79;99470.70;1713127;80;21502;-58
2021/01/07 03:21:17;;;;;;;12.73;8.67;;;;;;;2.46;84.75;99473.33;1714182;80;21241;-57
2021/01/07 03:23:44;;;;;;;9.70;7.17;;;;;;;2.46;84.75;99470.67;1717259;80;22645;-59
2021/01/07 03:26:12;;;;;;;12.33;7.90;;;;;;;2.46;84.78;99463.16;1715084;80;21403;-59
2021/01/07 03:28:39;;;;;;;8.97;7.73;;;;;;;2.45;84.81;99460.07;1713906;80;21199;-59
2021/01/07 03:31:06;;;;;;;10.80;7.97;;;;;;;2.45;84.90;99461.40;1719290;80;21192;-60
2021/01/07 03:33:33;;;;;;;11.70;7.73;;;;;;;2.48;84.91;99446.25;1720123;80;21229;-61
2021/01/07 03:36:01;;;;;;;11.07;7.60;;;;;;;2.50;84.91;99448.44;1710352;80;21735;-58
2021/01/07 03:38:28;;;;;;;12.07;7.90;;;;;;;2.51;84.87;99441.34;1714133;80;21457;-61
2021/01/07 03:40:55;;;;;;;13.07;8.83;;;;;;;2.52;84.83;99438.66;1714402;80;21196;-56
2021/01/07 03:43:23;;;;;;;9.93;7.70;;;;;;;2.53;84.77;99428.91;1715451;80;21675;-58
2021/01/07 03:45:50;;;;;;;11.07;7.50;;;;;;;2.53;84.77;99425.80;1715015;80;21185;-56
2021/01/07 03:48:17;;;;;;;12.17;8.10;;;;;;;2.53;84.79;99419.61;1713717;80;21597;-58
2021/01/07 03:50:44;;;;;;;7.13;6.10;;;;;;;2.54;84.79;99424.89;1714301;80;21251;-60
2021/01/07 03:53:12;;;;;;;9.90;5.97;;;;;;;2.55;84.73;99428.43;1712518;80;21743;-60
2021/01/07 03:55:39;;;;;;;7.70;5.80;;;;;;;2.53;84.75;99418.28;1716578;80;21243;-60
2021/01/07 03:58:06;;;;;;;7.47;4.77;;;;;;;2.51;84.75;99426.73;1711184;80;21191;-59
2021/01/07 04:00:33;;;;;;;4.50;4.03;;;;;;;2.47;84.73;99420.59;1716121;80;21195;-59
2021/01/07 04:03:01;;;;;;;6.43;3.53;;;;;;;2.45;84.77;99415.78;1715298;80;23026;-63
2021/01/07 04:05:28;;;;;;;7.63;4.03;;;;;;;2.46;84.80;99424.63;1711986;80;21924;-59
2021/01/07 04:07:55;;;;;;;5.13;3.00;;;;;;;2.45;84.84;99414.46;1712082;80;21438;-59
2021/01/07 04:10:22;;;;;;;6.23;3.83;;;;;;;2.46;84.87;99408.70;1710769;80;21165;-61
2021/01/07 04:12:50;;;;;;;9.40;4.60;;;;;;;2.48;84.87;99405.52;1712459;81;21219;-61
2021/01/07 04:15:17;;;;;;;8.00;6.30;;;;;;;2.49;84.89;99401.97;1731967;80;21823;-58
2021/01/07 04:17:44;;;;;;;7.10;4.90;;;;;;;2.50;84.89;99406.37;1730560;80;21954;-59
2021/01/07 04:20:12;;;;;;;11.93;6.17;;;;;;;2.50;84.88;99403.72;1733632;80;21234;-62
2021/01/07 04:22:40;;;;;;;15.90;6.37;;;;;;;2.47;84.88;99409.09;1739561;80;21159;-59
2021/01/07 04:25:09;;;;;;;11.40;5.90;;;;;;;2.46;84.90;99413.55;1735902;80;21215;-61
2021/01/07 04:27:36;;;;;;;12.60;5.33;;;;;;;2.47;84.90;99419.71;1734917;80;21275;-60
2021/01/07 04:30:07;;;;;;;12.73;6.27;;;;;;;2.46;84.92;99420.65;1733710;80;22621;-60
2021/01/07 04:32:34;;;;;;;16.43;5.90;;;;;;;2.45;84.97;99411.80;1736691;80;21570;-60
2021/01/07 04:35:02;;;;;;;12.77;6.17;;;;;;;2.47;85.04;99419.71;1734553;80;21195;-62
2021/01/07 04:37:29;;;;;;;19.47;6.83;;;;;;;2.50;85.08;99424.52;1733239;80;21195;-61
2021/01/07 04:39:56;;;;;;;10.60;6.30;;;;;;;2.51;85.07;99420.96;1732136;80;21401;-59
2021/01/07 04:42:24;;;;;;;14.70;7.23;;;;;;;2.52;85.11;99425.38;1730799;80;21193;-61
2021/01/07 04:44:51;;;;;;;13.47;6.43;;;;;;;2.51;85.09;99419.63;1734441;80;21205;-61
2021/01/07 04:47:18;;;;;;;19.23;7.33;;;;;;;2.49;85.05;99413.47;1695317;82;21187;-58
2021/01/07 04:49:47;;;;;;;17.17;8.33;;;;;;;2.48;85.07;99405.08;1736616;80;21123;-60
2021/01/07 04:52:15;;;;;;;23.70;8.30;;;;;;;2.48;85.07;99405.08;1733223;80;21787;-58
2021/01/07 04:54:42;;;;;;;13.23;6.93;;;;;;;2.49;85.13;99396.20;1733445;80;21485;-61
2021/01/07 04:57:09;;;;;;;17.67;6.43;;;;;;;2.50;85.17;99382.47;1732788;80;21225;-59
2021/01/07 04:59:36;;;;;;;14.03;6.93;;;;;;;2.52;85.22;99371.36;1735025;80;21199;-59
2021/01/07 05:02:03;;;;;;;17.40;7.93;;;;;;;2.53;85.19;99377.97;1736173;80;21210;-61
2021/01/07 05:04:30;;;;;;;15.67;7.63;;;;;;;2.55;85.23;99375.29;1734842;80;21402;-60
2021/01/07 05:06:59;;;;;;;15.60;7.57;;;;;;;2.56;85.27;99369.91;1730408;80;21246;-58
2021/01/07 05:09:26;;;;;;;15.50;8.73;;;;;;;2.55;85.25;99373.96;1735624;80;21151;-60
2021/01/07 05:11:54;;;;;;;14.70;7.43;;;;;;;2.54;85.21;99367.77;1707309;80;21139;-59
2021/01/07 05:14:21;;;;;;;11.40;6.27;;;;;;;2.54;85.22;99370.42;1707294;80;21156;-60
2021/01/07 05:16:48;;;;;;;21.30;7.03;;;;;;;2.54;85.26;99366.89;1683675;82;21390;-60
2021/01/07 05:19:16;;;;;;;10.50;5.87;;;;;;;2.53;85.31;99359.38;1728880;80;21539;-58
2021/01/07 05:21:43;;;;;;;12.10;5.20;;;;;;;2.54;85.36;99360.25;1727008;80;21159;-61
2021/01/07 05:24:10;;;;;;;6.47;5.27;;;;;;;2.55;85.38;99359.34;1729689;80;21143;-58
2021/01/07 05:26:38;;;;;;;8.50;4.93;;;;;;;2.57;85.44;99357.05;1680970;80;21135;-59
2021/01/07 05:29:05;;;;;;;9.00;5.73;;;;;;;2.59;85.42;99358.35;1657067;83;21401;-59
2021/01/07 05:31:32;;;;;;;9.57;4.87;;;;;;;2.60;85.43;99358.78;1683495;80;21290;-59
2021/01/07 05:33:59;;;;;;;7.27;4.87;;;;;;;2.58;85.39;99355.27;1721672;80;21160;-60
2021/01/07 05:36:30;;;;;;;6.10;4.07;;;;;;;2.58;85.38;99355.27;1695383;80;21202;-58
2021/01/07 05:39:06;;;;;;;5.53;3.43;;;;;;;2.57;85.38;99348.20;1723898;80;21214;-61
2021/01/07 05:41:33;;;;;;;6.67;3.27;;;;;;;2.55;85.49;99342.92;1730356;80;21224;-61
2021/01/07 05:44:08;;;;;;;4.30;3.03;;;;;;;2.56;85.54;99340.69;1681526;80;21225;-59
2021/01/07 05:46:35;;;;;;;3.67;2.50;;;;;;;2.59;85.59;99347.72;1726413;80;21248;-60
2021/01/07 05:49:03;;;;;;;2.83;2.30;;;;;;;2.60;85.63;99343.71;1698856;81;21623;-60
2021/01/07 05:51:31;;;;;;;6.17;3.43;;;;;;;2.62;85.63;99342.36;1723130;80;21268;-62
2021/01/07 05:53:59;;;;;;;9.50;4.77;;;;;;;2.63;85.65;99345.44;1728208;80;22732;-62
2021/01/07 05:56:27;;;;;;;10.43;3.43;;;;;;;2.63;85.64;99336.13;1724352;80;21210;-58
2021/01/07 05:58:55;;;;;;;3.63;3.33;;;;;;;2.60;85.62;99328.22;1723448;80;21188;-61
2021/01/07 06:01:23;;;;;;;7.90;4.13;;;;;;;2.58;85.65;99326.05;1723935;80;21121;-58
2021/01/07 06:03:52;;;;;;;4.20;3.33;;;;;;;2.57;85.65;99322.97;1727448;80;21537;-60
2021/01/07 06:06:21;;;;;;;3.83;3.03;;;;;;;2.58;85.76;99332.69;1723939;80;22260;-63
2021/01/07 06:08:50;;;;;;;4.63;2.80;;;;;;;2.58;85.80;99334.89;1719510;80;21176;-59
2021/01/07 06:11:20;;;;;;;3.53;2.63;;;;;;;2.61;85.85;99333.50;1728721;80;21139;-60
2021/01/07 06:13:51;;;;;;;4.43;3.70;;;;;;;2.64;85.85;99334.74;1727607;80;21127;-61
2021/01/07 06:16:23;;;;;;;4.07;3.57;;;;;;;2.67;85.86;99336.47;1683326;82;21531;-62
2021/01/07 06:18:50;;;;;;;4.50;2.73;;;;;;;2.70;85.88;99334.20;1684575;82;21213;-61
2021/01/07 06:21:17;;;;;;;5.17;3.57;;;;;;;2.70;85.90;99340.39;1683923;82;21278;-60
2021/01/07 06:23:46;;;;;;;6.07;4.27;;;;;;;2.73;85.90;99339.42;1678930;82;21640;-62
2021/01/07 06:26:26;;;;;;;6.13;3.57;;;;;;;2.71;85.85;99337.28;1684788;82;21198;-58
2021/01/07 06:28:58;;;;;;;4.77;3.73;;;;;;;2.71;85.79;99335.50;1651760;83;21167;-57
2021/01/07 06:31:35;;;;;;;5.60;3.70;;;;;;;2.71;85.79;99337.28;1681626;82;22295;-60
2021/01/07 06:34:05;;;;;;;3.93;3.53;;;;;;;2.73;85.84;99332.78;1682696;82;21172;-61
2021/01/07 06:36:41;;;;;;;5.13;3.83;;;;;;;2.76;85.94;99328.73;1677618;82;21196;-58
2021/01/07 06:39:08;;;;;;;7.90;4.67;;;;;;;2.79;85.90;99333.98;1682615;82;21152;-61
2021/01/07 06:41:36;;;;;;;8.63;5.23;;;;;;;2.79;85.89;99336.20;1686171;82;21146;-57
2021/01/07 06:44:04;;;;;;;9.47;5.93;;;;;;;2.79;85.93;99336.20;1682752;82;22627;-58
2021/01/07 06:46:47;;;;;;;8.70;5.73;;;;;;;2.80;85.95;99329.97;1659088;82;21382;-59
2021/01/07 06:49:24;;;;;;;7.43;5.57;;;;;;;2.80;85.92;99337.95;1679448;82;21195;-58
2021/01/07 06:52:04;;;;;;;7.70;5.87;;;;;;;2.80;85.87;99326.44;1685379;82;21642;-61
2021/01/07 06:54:33;;;;;;;6.00;5.40;;;;;;;2.79;85.85;99322.03;1666817;82;21104;-59
2021/01/07 06:57:06;;;;;;;6.27;4.93;;;;;;;2.80;85.92;99326.44;1678976;82;22307;-56
2021/01/07 06:59:33;;;;;;;8.07;5.60;;;;;;;2.81;85.96;99330.81;1663149;82;21482;-59
2021/01/07 07:02:01;;;;;;;9.83;4.90;;;;;;;2.83;85.98;99324.56;1679817;82;21227;-58
2021/01/07 07:04:29;;;;;;;7.50;5.83;;;;;;;2.86;85.97;99318.31;1579147;86;21238;-57
2021/01/07 07:07:23;;;;;;;6.57;4.43;;;;;;;2.91;85.94;99317.73;1680760;82;21210;-58
2021/01/07 07:09:52;;;;;;;6.60;5.17;;;;;;;2.91;85.87;99315.95;1678791;82;21230;-60
2021/01/07 07:12:31;;;;;;;8.20;6.60;;;;;;;2.91;85.82;99316.40;1677469;82;21278;-58
2021/01/07 07:14:59;;;;;;;8.27;6.47;;;;;;;2.88;85.80;99316.05;1698695;80;21159;-61
2021/01/07 07:17:27;;;;;;;10.87;6.57;;;;;;;2.89;85.79;99310.27;1732926;80;21795;-59
2021/01/07 07:19:54;;;;;;;9.10;6.17;;;;;;;2.87;85.79;99306.77;1736540;80;21198;-61
2021/01/07 07:22:21;;;;;;;9.13;6.23;;;;;;;2.88;85.85;99306.73;1735506;80;22878;-58
2021/01/07 07:24:50;;;;;;;14.90;7.50;;;;;;;2.89;85.89;99292.50;1733205;80;21223;-58
2021/01/07 07:27:18;;;;;;;14.90;8.27;;;;;;;2.92;85.92;99286.25;1681564;80;21621;-60
2021/01/07 07:29:48;;;;;;;15.87;8.80;;;;;;;2.95;85.92;99285.73;1700002;82;21234;-58
2021/01/07 07:32:25;;;;;;;18.87;10.47;;;;;;;2.97;85.89;99282.59;1733215;80;21539;-59
2021/01/07 07:34:53;;;;;;;20.40;12.23;;;;;;;2.99;85.86;99277.20;1699457;82;21210;-59
2021/01/07 07:37:25;;;;;;;20.00;12.23;;;;;;;2.97;85.84;99274.61;1739954;80;21582;-61
2021/01/07 07:40:04;;;;;;;22.60;12.73;;;;;;;2.98;85.83;99264.82;1700605;82;21124;-58
2021/01/07 07:42:32;;;;;;;25.63;12.80;;;;;;;3.00;85.83;99273.18;1734818;80;21231;-61
2021/01/07 07:44:59;;;;;;;27.90;14.07;;;;;;;3.02;85.84;99258.07;1737280;80;21703;-62
2021/01/07 07:47:26;;;;;;;34.47;15.17;;;;;;;3.03;85.87;99258.49;1693892;82;21238;-61
2021/01/07 07:49:56;;;;;;;32.97;17.23;;;;;;;3.06;85.89;99252.69;1671174;83;21231;-58
2021/01/07 07:52:24;;;;;;;36.47;17.77;;;;;;;3.07;85.92;99250.41;1735179;80;21210;-57
2021/01/07 07:55:05;;;;;;;35.33;18.30;;;;;;;3.08;85.93;99244.19;1735928;80;21099;-61
2021/01/07 07:57:48;;;;;;;45.03;19.63;;;;;;;3.10;85.94;99239.71;1740820;80;21844;-61
2021/01/07 08:00:17;;;;;;;38.50;17.77;;;;;;;3.08;85.90;99237.54;1736299;80;21213;-60
2021/01/07 08:02:45;;;;;;;34.97;17.23;;;;;;;3.05;85.88;99239.84;1736923;80;21154;-58
2021/01/07 08:05:26;;;;;;;36.47;16.47;;;;;;;3.08;85.91;99238.87;1737189;80;21191;-59
2021/01/07 08:07:54;;;;;;;31.17;15.33;;;;;;;3.09;85.97;99231.31;1702023;82;21140;-62
2021/01/07 08:10:22;;;;;;;33.30;15.90;;;;;;;3.10;85.99;99223.75;1737127;80;21167;-61
2021/01/07 08:12:51;;;;;;;27.03;15.10;;;;;;;3.11;86.02;99231.70;1732878;80;21264;-57
2021/01/07 08:15:31;;;;;;;29.60;14.23;;;;;;;3.15;86.06;99222.70;1687297;82;21229;-58
2021/01/07 08:18:20;;;;;;;32.90;16.33;;;;;;;3.18;86.03;99219.98;1720755;80;22600;-59
2021/01/07 08:20:51;;;;;;;33.67;15.53;;;;;;;3.22;86.03;99220.33;1671592;82;21770;-59
2021/01/07 08:23:19;;;;;;;27.07;15.67;;;;;;;3.22;86.01;99216.34;1715825;80;21294;-62
2021/01/07 08:25:49;;;;;;;27.23;13.93;;;;;;;3.21;85.96;99216.37;1718111;80;21018;-59
2021/01/07 08:28:41;;;;;;;27.27;14.10;;;;;;;3.20;85.94;99214.63;1671269;82;21190;-58
2021/01/07 08:31:21;;;;;;;26.83;14.47;;;;;;;3.22;85.99;99209.69;1721285;81;21200;-60
2021/01/07 08:33:50;;;;;;;22.67;12.03;;;;;;;3.25;86.02;99214.03;1675342;82;21634;-59
2021/01/07 08:36:19;;;;;;;21.57;11.87;;;;;;;3.27;86.03;99200.23;1711382;81;21204;-61
2021/01/07 08:38:51;;;;;;;22.53;12.73;;;;;;;3.29;85.99;99201.08;1717233;81;22733;-58
2021/01/07 08:41:30;;;;;;;24.43;12.80;;;;;;;3.31;85.98;99187.28;1716922;81;21183;-57
2021/01/07 08:44:00;;;;;;;17.80;10.60;;;;;;;3.32;85.97;99186.34;1716719;81;21172;-60
2021/01/07 08:46:41;;;;;;;20.20;11.63;;;;;;;3.30;86.00;99181.09;1719307;81;21232;-60
2021/01/07 08:49:18;;;;;;;19.57;11.77;;;;;;;3.30;86.01;99184.20;1668967;82;21215;-58
2021/01/07 08:51:47;;;;;;;15.63;9.77;;;;;;;3.29;85.97;99180.67;1717642;80;21529;-59
2021/01/07 08:54:19;;;;;;;16.43;9.83;;;;;;;3.26;85.96;99176.75;1716266;80;21145;-62
2021/01/07 08:56:50;;;;;;;17.67;9.53;;;;;;;3.25;86.06;99163.03;1716154;80;21114;-62
2021/01/07 08:59:27;;;;;;;15.27;8.90;;;;;;;3.28;86.13;99155.44;1713005;80;21196;-59
2021/01/07 09:02:06;;;;;;;11.47;7.77;;;;;;;3.32;86.16;99151.76;1717733;80;21113;-63
2021/01/07 09:04:38;;;;;;;15.13;9.60;;;;;;;3.35;86.19;99151.68;1716493;80;21610;-60
2021/01/07 09:07:17;;;;;;;16.33;10.20;;;;;;;3.38;86.18;99135.64;1716761;80;21710;-60
2021/01/07 09:09:57;;;;;;;15.07;8.73;;;;;;;3.39;86.15;99137.39;1712793;80;21203;-58
2021/01/07 09:12:32;;;;;;;17.80;9.27;;;;;;;3.38;86.15;99132.53;1717449;80;22246;-62
2021/01/07 09:15:09;;;;;;;;;;;;;;;3.37;86.12;99131.23;1720705;80;21116;-60
2021/01/07 09:17:48;;;;;;;13.70;8.37;;;;;;;3.36;86.09;99123.71;1739464;80;21267;-60
2021/01/07 09:20:19;;;;;;;15.03;7.47;;;;;;;3.36;86.12;99110.86;1708709;82;21163;-58
2021/01/07 09:22:47;;;;;;;11.67;7.33;;;;;;;3.34;86.18;99109.58;1674456;83;21177;-61
2021/01/07 09:25:19;;;;;;;9.10;6.20;;;;;;;3.38;86.26;99109.04;1702347;82;21641;-61
2021/01/07 09:27:47;;;;;;;9.03;6.30;;;;;;;3.41;86.25;99102.28;1677813;83;21608;-59
2021/01/07 09:30:16;;;;;;;9.40;5.60;;;;;;;3.45;86.24;99090.64;1670956;83;21231;-57
2021/01/07 09:32:44;;;;;;;12.03;7.77;;;;;;;3.49;86.22;99092.28;1675032;83;21257;-61
2021/01/07 09:35:12;;;;;;;12.43;6.77;;;;;;;3.51;86.23;99068.29;1677077;83;21128;-59
2021/01/07 09:37:41;;;;;;;11.37;6.83;;;;;;;3.54;86.23;99069.08;1674885;83;21592;-58
2021/01/07 09:40:08;;;;;;;9.43;6.27;;;;;;;3.53;86.19;99062.47;1672345;83;21143;-58
2021/01/07 09:42:36;;;;;;;14.87;7.20;;;;;;;3.54;86.17;99047.80;1680738;83;21418;-58
2021/01/07 09:45:05;;;;;;;6.97;5.10;;;;;;;3.54;86.12;99045.59;1681333;83;21172;-61
2021/01/07 09:47:34;;;;;;;10.43;5.47;;;;;;;3.56;86.13;99044.62;1701600;82;21142;-57
2021/01/07 09:50:07;;;;;;;8.90;5.37;;;;;;;3.57;86.15;99044.17;1679002;83;21454;-61
2021/01/07 09:52:34;;;;;;;5.30;3.73;;;;;;;3.61;86.18;99041.81;1700029;82;21132;-59
2021/01/07 09:55:03;;;;;;;6.77;3.90;;;;;;;3.64;86.14;99033.74;1685857;82;21210;-60
2021/01/07 09:57:30;;;;;;;4.37;2.73;;;;;;;3.69;86.13;99028.67;1692994;82;21164;-59
2021/01/07 09:59:57;;;;;;;3.53;2.00;;;;;;;3.72;86.12;99025.92;1694649;82;21136;-61
2021/01/07 10:02:24;;;;;;;3.60;3.20;;;;;;;3.76;86.07;99017.36;1695726;82;21206;-57
2021/01/07 10:04:52;;;;;;;4.17;2.10;;;;;;;3.76;85.94;99007.59;1694645;82;21654;-58
2021/01/07 10:07:19;;;;;;;3.57;2.03;;;;;;;3.77;85.85;99004.47;1693593;82;23587;-58
2021/01/07 10:09:49;;;;;;;3.50;2.20;;;;;;;3.80;85.79;99000.38;1691996;82;21247;-62
2021/01/07 10:12:16;;;;;;;4.60;2.80;;;;;;;3.83;85.80;98996.27;1676719;83;21254;-60
2021/01/07 10:14:45;;;;;;;2.60;1.70;;;;;;;3.85;85.80;98990.44;1670995;83;21235;-58
2021/01/07 10:17:13;;;;;;;3.13;2.33;;;;;;;3.88;85.76;98979.70;1613645;83;21225;-62
2021/01/07 10:19:40;;;;;;;2.20;1.37;;;;;;;3.91;85.74;98972.95;1678906;82;21569;-60
2021/01/07 10:22:10;;;;;;;3.90;2.37;;;;;;;3.92;85.66;98966.67;1722915;80;21223;-59
2021/01/07 10:24:46;;;;;;;3.60;2.20;;;;;;;3.92;85.62;98958.69;1658470;83;21244;-58
2021/01/07 10:27:17;;;;;;;2.47;1.80;;;;;;;3.91;85.62;98961.43;1722936;80;21246;-61
2021/01/07 10:30:59;;;;;;;3.10;2.20;;;;;;;3.98;85.57;98946.52;1791828;78;22629;-58
2021/01/07 10:33:26;;;;;;;2.93;1.43;;;;;;;3.94;85.56;98944.00;1772226;79;21193;-61
2021/01/07 10:35:53;;;;;;;2.57;1.33;;;;;;;3.94;85.52;98936.02;1767894;79;21621;-59
2021/01/07 10:38:23;;;;;;;1.63;1.40;;;;;;;3.94;85.46;98934.22;1768897;79;21951;-58
2021/01/07 10:40:53;;;;;;;1.67;1.30;;;;;;;3.93;85.51;98931.61;1768120;79;21223;-57
2021/01/07 10:43:22;;;;;;;2.13;1.27;;;;;;;3.95;85.52;98927.98;1742880;80;21396;-61
2021/01/07 10:45:51;;;;;;;1.83;1.60;;;;;;;3.96;85.53;98923.06;1743622;80;21222;-58
2021/01/07 10:48:23;;;;;;;3.10;1.03;;;;;;;3.98;85.49;98913.23;1740541;81;21080;-60
2021/01/07 10:50:50;;;;;;;2.10;1.30;;;;;;;3.99;85.44;98907.45;1740053;81;21024;-58
2021/01/07 10:53:42;;;;;;;1.63;1.00;;;;;;;3.96;85.42;98903.55;1744625;80;21128;-60
2021/01/07 10:56:25;;;;;;;1.37;0.90;;;;;;;3.97;85.44;98900.84;1742982;80;21521;-59
2021/01/07 10:59:07;;;;;;;1.40;1.00;;;;;;;3.98;85.44;98886.61;1739719;81;21514;-61
2021/01/07 11:02:02;;;;;;;1.30;0.80;;;;;;;3.99;85.39;98883.48;1740443;81;21206;-63
2021/01/07 11:05:12;;;;;;;1.10;0.70;;;;;;;3.97;85.39;98883.53;1680924;83;21859;-58
2021/01/07 11:07:48;;;;;;;1.17;0.90;;;;;;;3.97;85.46;98880.00;1706286;82;21149;-58
2021/01/07 11:10:15;;;;;;;3.47;1.30;;;;;;;4.00;85.49;98869.22;1700648;82;21214;-61
2021/01/07 11:12:55;;;;;;;2.43;1.00;;;;;;;4.01;85.51;98863.84;1684376;83;21512;-61
2021/01/07 11:15:26;;;;;;;1.23;1.00;;;;;;;4.05;85.50;98861.95;1681300;83;23297;-63
2021/01/07 11:17:57;;;;;;;1.63;0.90;;;;;;;4.05;85.48;98862.83;1710387;82;21147;-59
2021/01/07 11:20:26;;;;;;;1.03;0.80;;;;;;;4.03;85.44;98850.48;1711292;82;21127;-57
2021/01/07 11:22:54;;;;;;;1.10;0.80;;;;;;;4.02;85.45;98838.09;1712231;82;21159;-59
2021/01/07 11:25:22;;;;;;;1.30;0.90;;;;;;;4.04;85.50;98831.79;1689893;83;21134;-57
2021/01/07 11:27:51;;;;;;;1.70;0.83;;;;;;;4.07;85.54;98830.82;1689554;83;21368;-62
2021/01/07 11:30:19;;;;;;;1.40;1.00;;;;;;;4.10;85.54;98824.91;1669887;84;21204;-60
2021/01/07 11:32:46;;;;;;;1.43;1.10;;;;;;;4.13;85.49;98815.94;1693511;83;21112;-61
2021/01/07 11:35:14;;;;;;;1.50;1.20;;;;;;;4.12;85.47;98819.06;1729021;81;21127;-61
2021/01/07 11:38:00;;;;;;;3.10;1.73;;;;;;;4.13;85.52;98811.94;1728535;82;21237;-59
2021/01/07 11:41:02;;;;;;;2.73;1.50;;;;;;;4.12;85.48;98799.09;1728513;81;21223;-59
2021/01/07 11:44:09;;;;;;;3.40;1.30;;;;;;;4.11;85.46;98795.14;1730475;82;21136;-62
2021/01/07 11:46:37;;;;;;;1.97;1.20;;;;;;;4.10;85.50;98796.06;1728215;82;21183;-62
2021/01/07 11:49:06;;;;;;;2.77;1.57;;;;;;;4.08;85.56;98790.79;1728614;82;21197;-59
2021/01/07 11:51:35;;;;;;;1.47;1.03;;;;;;;4.07;85.60;98782.42;1725470;82;22467;-58